X  Schlie├čen METAR Luftfahrt Wetterdaten     EHGG Eelde Airport
Temperatur
15°C Temperatur
14°C Taupunkt
94% Feuchtigkeit



Wind
11 KM/S
7 MPS
3 M/S
6 KTS



240°
WSW
Aktuelle Wetterlage

Leicht  Regen Leicht Regen
Luftdruck 997.92 (hPa) - 29.47 (inHg)
Sichtweite 6.2 (Meile) - 10 (Km)
Flughafen
Flughafen Code EHGG

Position : Eelde Airport
Entfernung: 40 (Km)

Metar:
EHGG 211225Z AUTO 24006KT 9999 -RA FEW023 OVC029 15/14 Q0998 TEMPO 6000 RA

Zeit: 21-09-2023 14:25 CEST